createdAt,value
2023-05-04T00:01:27.090Z,7.65
2023-05-04T00:03:58.903Z,7.97
2023-05-04T00:06:30.916Z,8.30
2023-05-04T00:09:03.086Z,6.65
2023-05-04T00:11:34.811Z,6.97
2023-05-04T00:14:06.429Z,6.85
2023-05-04T00:16:38.162Z,6.45
2023-05-04T00:19:10.289Z,8.23
2023-05-04T00:21:41.859Z,9.05
2023-05-04T00:24:13.524Z,8.00
2023-05-04T00:26:45.796Z,7.63
2023-05-04T00:29:17.393Z,7.78
2023-05-04T00:31:49.087Z,9.20
2023-05-04T00:34:20.990Z,6.93
2023-05-04T00:36:52.733Z,10.15
2023-05-04T00:39:24.285Z,8.63
2023-05-04T00:41:56.289Z,7.05
2023-05-04T00:44:29.953Z,8.68
2023-05-04T00:47:03.539Z,7.35
2023-05-04T00:49:38.594Z,8.90
2023-05-04T00:52:13.983Z,7.97
2023-05-04T00:54:47.373Z,7.95
2023-05-04T00:57:21.398Z,8.98
2023-05-04T00:59:56.166Z,8.57
2023-05-04T01:02:27.810Z,10.55
2023-05-04T01:04:59.422Z,9.23
2023-05-04T01:08:09.927Z,8.63
2023-05-04T01:11:07.361Z,8.27
2023-05-04T01:13:40.239Z,10.50
2023-05-04T01:16:11.950Z,9.73
2023-05-04T01:18:43.641Z,8.88
2023-05-04T01:21:17.467Z,9.10
2023-05-04T01:23:49.268Z,10.32
2023-05-04T01:26:30.693Z,9.45
2023-05-04T01:31:52.895Z,8.20
2023-05-04T01:34:24.495Z,10.10
2023-05-04T01:36:56.638Z,9.95
2023-05-04T01:39:30.015Z,9.93
2023-05-04T01:42:02.263Z,11.98
2023-05-04T01:44:34.046Z,11.73
2023-05-04T01:47:05.856Z,10.00
2023-05-04T01:49:37.630Z,10.20
2023-05-04T01:52:09.239Z,10.65
2023-05-04T01:54:40.853Z,9.55
2023-05-04T01:57:12.418Z,10.13
2023-05-04T01:59:44.057Z,10.60
2023-05-04T02:02:15.672Z,10.73
2023-05-04T02:04:47.225Z,11.00
2023-05-04T02:07:18.850Z,11.30
2023-05-04T02:09:50.447Z,10.40
2023-05-04T02:12:22.124Z,10.82
2023-05-04T02:14:54.042Z,10.07
2023-05-04T02:17:26.050Z,11.55
2023-05-04T02:19:57.643Z,10.15
2023-05-04T02:22:29.300Z,15.43
2023-05-04T02:25:01.006Z,9.50
2023-05-04T02:27:32.765Z,11.45
2023-05-04T02:30:05.749Z,11.18
2023-05-04T02:32:37.726Z,11.05
2023-05-04T02:35:09.329Z,10.93
2023-05-04T02:37:43.688Z,11.43
2023-05-04T02:40:15.877Z,10.65
2023-05-04T02:42:47.504Z,11.88
2023-05-04T02:45:19.915Z,10.93
2023-05-04T02:47:51.631Z,11.98
2023-05-04T02:50:23.350Z,13.68
2023-05-04T02:52:54.987Z,12.48
2023-05-04T02:55:26.609Z,12.95
2023-05-04T02:57:58.399Z,11.32
2023-05-04T03:00:30.026Z,14.27
2023-05-04T03:03:04.426Z,11.23
2023-05-04T03:05:38.155Z,13.00
2023-05-04T03:08:12.892Z,13.68
2023-05-04T03:10:44.455Z,13.13
2023-05-04T03:13:16.930Z,12.98
2023-05-04T03:15:49.270Z,12.75
2023-05-04T03:18:20.899Z,12.88
2023-05-04T03:20:52.583Z,11.30
2023-05-04T03:23:24.175Z,13.10
2023-05-04T03:25:56.609Z,12.55
2023-05-04T03:28:28.204Z,13.48
2023-05-04T03:30:59.742Z,14.82
2023-05-04T03:33:31.325Z,13.80
2023-05-04T03:36:03.240Z,14.32
2023-05-04T03:38:34.860Z,13.70
2023-05-04T03:41:06.626Z,12.65
2023-05-04T03:43:38.637Z,15.73
2023-05-04T03:46:10.339Z,13.63
2023-05-04T03:48:42.178Z,14.65
2023-05-04T03:51:13.955Z,13.07
2023-05-04T03:53:46.186Z,17.13
2023-05-04T03:56:17.721Z,14.00
2023-05-04T03:58:49.268Z,15.45
2023-05-04T04:01:20.866Z,13.80
2023-05-04T04:03:52.585Z,14.45
2023-05-04T04:06:24.264Z,15.10
2023-05-04T04:08:55.922Z,16.13
2023-05-04T04:11:27.710Z,14.70
2023-05-04T04:13:59.394Z,15.15
2023-05-04T04:16:31.332Z,14.60
2023-05-04T04:19:03.033Z,15.23
2023-05-04T04:21:37.754Z,18.20
2023-05-04T04:24:09.401Z,13.98
2023-05-04T04:26:40.955Z,15.10
2023-05-04T04:29:14.852Z,13.82
2023-05-04T04:31:46.689Z,15.20
2023-05-04T04:34:21.149Z,15.73
2023-05-04T04:36:52.735Z,14.32
2023-05-04T04:39:24.647Z,16.00
2023-05-04T04:41:56.187Z,16.88
2023-05-04T04:44:28.317Z,17.20
2023-05-04T04:47:01.427Z,15.40
2023-05-04T04:49:33.011Z,15.30
2023-05-04T04:52:05.045Z,13.23
2023-05-04T04:54:36.615Z,16.55
2023-05-04T04:57:08.200Z,15.52
2023-05-04T04:59:39.731Z,16.58
2023-05-04T05:02:11.456Z,16.52
2023-05-04T05:04:43.096Z,14.30
2023-05-04T05:07:15.470Z,14.68
2023-05-04T05:09:47.050Z,14.27
2023-05-04T05:12:18.620Z,14.00
2023-05-04T05:14:51.571Z,14.75
2023-05-04T05:17:23.353Z,14.98
2023-05-04T05:19:54.938Z,13.63
2023-05-04T05:22:26.515Z,14.20
2023-05-04T05:24:58.054Z,14.95
2023-05-04T05:27:51.840Z,13.80
2023-05-04T05:30:23.685Z,13.30
2023-05-04T05:32:55.338Z,15.48
2023-05-04T05:35:27.119Z,13.45
2023-05-04T05:37:58.982Z,13.93
2023-05-04T05:40:30.587Z,14.68
2023-05-04T05:43:03.141Z,12.90
2023-05-04T05:45:34.771Z,14.18
2023-05-04T05:48:06.552Z,14.57
2023-05-04T05:50:38.179Z,11.77
2023-05-04T05:53:09.817Z,13.18
2023-05-04T05:55:41.361Z,14.32
2023-05-04T05:58:23.539Z,14.20
2023-05-04T06:00:55.195Z,13.55
2023-05-04T06:03:27.295Z,13.75
2023-05-04T06:05:58.950Z,13.18
2023-05-04T06:08:33.272Z,12.73
2023-05-04T06:11:05.003Z,11.30
2023-05-04T06:13:36.617Z,10.82
2023-05-04T06:16:08.355Z,11.80
2023-05-04T06:18:43.032Z,10.40
2023-05-04T06:21:14.744Z,11.10
2023-05-04T06:23:47.098Z,10.40
2023-05-04T06:26:20.353Z,9.57
2023-05-04T06:28:51.921Z,10.02
2023-05-04T06:31:24.403Z,10.75
2023-05-04T06:33:56.488Z,8.88
2023-05-04T06:36:28.142Z,9.95
2023-05-04T06:38:59.671Z,10.88
2023-05-04T06:41:31.663Z,8.82
2023-05-04T06:44:06.734Z,8.55
2023-05-04T06:46:38.437Z,9.57
2023-05-04T06:49:13.141Z,9.52
2023-05-04T06:51:44.913Z,9.15
2023-05-04T06:54:16.451Z,8.88
2023-05-04T06:56:47.989Z,8.63
2023-05-04T06:59:20.584Z,7.90
2023-05-04T07:01:52.167Z,9.05
2023-05-04T07:04:23.913Z,10.13
2023-05-04T07:06:55.545Z,9.57
2023-05-04T07:09:27.386Z,9.63
2023-05-04T07:11:58.950Z,11.18
2023-05-04T07:14:30.824Z,10.45
2023-05-04T07:17:02.391Z,9.75
2023-05-04T07:19:34.437Z,13.50
2023-05-04T07:22:05.997Z,12.63
2023-05-04T07:24:40.508Z,10.10
2023-05-04T07:27:12.202Z,11.93
2023-05-04T07:29:46.268Z,10.95
2023-05-04T07:32:18.029Z,9.82
2023-05-04T07:34:49.830Z,9.13
2023-05-04T07:37:21.370Z,9.77
2023-05-04T07:39:53.050Z,9.90
2023-05-04T07:42:24.608Z,8.55
2023-05-04T07:44:57.087Z,9.68
2023-05-04T07:47:28.942Z,9.63
2023-05-04T07:50:00.710Z,9.27
2023-05-04T07:52:33.194Z,8.82
2023-05-04T07:55:05.492Z,9.00
2023-05-04T07:57:37.836Z,9.45
2023-05-04T08:00:11.567Z,9.85
2023-05-04T08:02:43.890Z,8.98
2023-05-04T08:05:18.717Z,9.25
2023-05-04T08:07:50.290Z,8.57
2023-05-04T08:10:21.985Z,10.40
2023-05-04T08:12:53.699Z,10.50
2023-05-04T08:15:25.546Z,9.10
2023-05-04T08:17:57.522Z,10.77
2023-05-04T08:20:29.592Z,9.95
2023-05-04T08:23:04.073Z,11.77
2023-05-04T08:25:35.773Z,9.98
2023-05-04T08:28:07.388Z,8.68
2023-05-04T08:30:39.108Z,10.57
2023-05-04T08:33:13.534Z,8.82
2023-05-04T08:35:45.138Z,9.35
2023-05-04T08:40:50.474Z,9.82
2023-05-04T08:43:22.908Z,9.52
2023-05-04T08:45:54.585Z,9.68
2023-05-04T08:48:26.252Z,8.43
2023-05-04T08:50:58.442Z,12.23
2023-05-04T08:53:31.587Z,10.88
2023-05-04T08:56:07.759Z,8.27
2023-05-04T08:58:50.008Z,9.70
2023-05-04T09:01:22.314Z,9.57
2023-05-04T09:03:56.936Z,7.95
2023-05-04T09:06:32.240Z,8.18
2023-05-04T09:09:06.939Z,8.45
2023-05-04T09:11:39.315Z,9.23
2023-05-04T09:14:11.344Z,10.07
2023-05-04T09:16:43.181Z,10.40
2023-05-04T09:19:19.722Z,9.43
2023-05-04T09:21:54.363Z,8.25
2023-05-04T09:24:30.058Z,7.82
2023-05-04T09:27:14.311Z,9.15
2023-05-04T09:29:54.898Z,8.93
2023-05-04T09:32:26.600Z,9.82
2023-05-04T09:34:58.207Z,8.85
2023-05-04T09:37:29.922Z,8.75
2023-05-04T09:40:01.538Z,8.50
2023-05-04T09:42:33.817Z,7.30
2023-05-04T09:45:10.928Z,10.70
2023-05-04T09:47:42.630Z,18.15
2023-05-04T09:50:23.297Z,10.05
2023-05-04T09:55:28.546Z,9.35
2023-05-04T09:58:03.243Z,8.15
2023-05-04T10:00:36.129Z,8.05
2023-05-04T10:03:07.958Z,9.27
2023-05-04T10:05:40.125Z,8.55
2023-05-04T10:08:12.588Z,10.50
2023-05-04T10:10:44.613Z,9.52
2023-05-04T10:13:17.312Z,9.73
2023-05-04T10:16:12.286Z,9.98
2023-05-04T10:19:26.914Z,9.18
2023-05-04T10:22:43.098Z,10.25
2023-05-04T10:25:34.817Z,9.23
2023-05-04T10:28:40.426Z,10.70
2023-05-04T10:31:12.217Z,10.95
2023-05-04T10:33:46.738Z,7.35
2023-05-04T10:38:52.089Z,7.20
2023-05-04T10:41:23.735Z,7.10
2023-05-04T10:44:06.246Z,6.95
2023-05-04T10:46:37.850Z,4.95
2023-05-04T10:49:18.769Z,4.07
2023-05-04T10:51:51.835Z,5.00
2023-05-04T10:54:23.402Z,4.95
2023-05-04T10:57:09.356Z,5.20
2023-05-04T10:59:41.744Z,4.43
2023-05-04T11:02:23.572Z,5.00
2023-05-04T11:05:07.127Z,4.22
2023-05-04T11:07:40.107Z,5.18
2023-05-04T11:10:24.439Z,5.10
2023-05-04T11:13:05.816Z,4.60
2023-05-04T11:15:49.839Z,5.57
2023-05-04T11:18:36.738Z,5.88
2023-05-04T11:21:12.089Z,4.78
2023-05-04T11:23:43.918Z,3.22
2023-05-04T11:26:16.159Z,3.95
2023-05-04T11:28:47.806Z,3.15
2023-05-04T11:31:21.395Z,4.90
2023-05-04T11:33:55.103Z,3.22
2023-05-04T11:36:27.319Z,3.33
2023-05-04T11:38:59.230Z,3.20
2023-05-04T11:41:32.698Z,4.70
2023-05-04T11:44:07.832Z,6.90
2023-05-04T11:46:39.979Z,4.10
2023-05-04T11:49:14.999Z,4.50
2023-05-04T11:51:48.549Z,5.10
2023-05-04T11:54:23.347Z,4.30
2023-05-04T11:56:54.939Z,2.85
2023-05-04T11:59:33.842Z,4.25
2023-05-04T12:02:16.511Z,5.25
2023-05-04T12:04:48.391Z,5.03
2023-05-04T12:07:19.959Z,2.83
2023-05-04T12:09:51.916Z,6.22
2023-05-04T12:12:35.797Z,3.90
2023-05-04T12:15:08.354Z,3.08
2023-05-04T12:17:42.036Z,2.28
2023-05-04T12:20:24.412Z,2.47
2023-05-04T12:22:57.900Z,4.30
2023-05-04T12:25:29.513Z,3.63
2023-05-04T12:28:01.163Z,2.67
2023-05-04T12:30:32.722Z,5.78
2023-05-04T12:33:05.798Z,5.28
2023-05-04T12:35:37.413Z,4.15
2023-05-04T12:38:09.121Z,2.67
2023-05-04T12:40:41.938Z,4.85
2023-05-04T12:43:13.533Z,3.28
2023-05-04T12:45:45.885Z,2.70
2023-05-04T12:48:20.963Z,1.75
2023-05-04T12:50:52.839Z,3.05
2023-05-04T12:53:33.516Z,5.07
2023-05-04T12:56:05.232Z,2.13
2023-05-04T12:58:39.173Z,1.85
2023-05-04T13:01:11.018Z,2.50
2023-05-04T13:03:42.894Z,3.42
2023-05-04T13:06:16.871Z,1.90
2023-05-04T13:08:48.547Z,4.68
2023-05-04T13:11:20.697Z,1.75
2023-05-04T13:13:53.395Z,2.65
2023-05-04T13:16:26.910Z,1.52
2023-05-04T13:18:58.812Z,3.55
2023-05-04T13:21:30.584Z,2.65
2023-05-04T13:24:02.363Z,2.42
2023-05-04T13:26:33.963Z,2.35
2023-05-04T13:29:05.552Z,3.80
2023-05-04T13:31:44.966Z,3.50
2023-05-04T13:34:16.686Z,4.45
2023-05-04T13:36:51.677Z,3.25
2023-05-04T13:39:23.270Z,3.92
2023-05-04T13:41:54.841Z,3.30
2023-05-04T13:44:26.387Z,5.95
2023-05-04T13:47:01.879Z,3.45
2023-05-04T13:49:33.451Z,6.10
2023-05-04T13:52:05.588Z,6.18
2023-05-04T13:54:39.435Z,6.35
2023-05-04T13:57:11.512Z,5.60
2023-05-04T13:59:48.839Z,6.22
2023-05-04T14:02:30.307Z,8.55
2023-05-04T14:05:03.931Z,4.00
2023-05-04T14:07:38.916Z,5.53
2023-05-04T14:10:10.828Z,7.75
2023-05-04T14:12:44.854Z,5.30
2023-05-04T14:15:16.874Z,7.50
2023-05-04T14:17:49.775Z,5.07
2023-05-04T14:20:21.423Z,3.58
2023-05-04T14:22:55.668Z,4.35
2023-05-04T14:25:27.288Z,3.38
2023-05-04T14:27:58.935Z,7.72
2023-05-04T14:30:31.696Z,5.38
2023-05-04T14:33:03.853Z,4.57
2023-05-04T14:35:37.500Z,5.80
2023-05-04T14:38:10.199Z,5.38
2023-05-04T14:40:42.111Z,3.38
2023-05-04T14:43:13.745Z,3.65
2023-05-04T14:45:45.414Z,6.00
2023-05-04T14:48:17.518Z,4.22
2023-05-04T14:50:49.070Z,3.53
2023-05-04T14:53:21.829Z,3.80
2023-05-04T14:55:53.496Z,3.65
2023-05-04T14:58:25.035Z,4.07
2023-05-04T15:00:57.194Z,3.95
2023-05-04T15:03:28.913Z,4.53
2023-05-04T15:06:00.866Z,3.95
2023-05-04T15:08:32.577Z,3.70
2023-05-04T15:11:04.139Z,4.65
2023-05-04T15:13:35.806Z,3.58
2023-05-04T15:16:07.787Z,4.28
2023-05-04T15:18:39.350Z,4.93
2023-05-04T15:21:11.348Z,3.08
2023-05-04T15:23:42.915Z,3.45
2023-05-04T15:26:14.798Z,3.55
2023-05-04T15:28:50.387Z,2.55
2023-05-04T15:31:23.279Z,3.05
2023-05-04T15:33:54.898Z,4.40
2023-05-04T15:36:27.320Z,2.83
2023-05-04T15:38:59.041Z,2.83
2023-05-04T15:41:31.873Z,2.92
2023-05-04T15:44:08.220Z,3.75
2023-05-04T15:46:39.943Z,2.63
2023-05-04T15:49:13.606Z,2.42
2023-05-04T15:51:45.288Z,3.85
2023-05-04T15:54:16.877Z,5.03
2023-05-04T15:56:48.965Z,1.80
2023-05-04T15:59:20.594Z,1.85
2023-05-04T16:01:52.224Z,2.75
2023-05-04T16:04:23.891Z,2.95
2023-05-04T16:06:55.603Z,1.90
2023-05-04T16:09:28.122Z,2.50
2023-05-04T16:12:05.207Z,2.22
2023-05-04T16:14:36.717Z,2.53
2023-05-04T16:17:11.289Z,2.45
2023-05-04T16:22:21.688Z,3.10
2023-05-04T16:24:53.798Z,3.22
2023-05-04T16:27:27.244Z,4.03
2023-05-04T16:29:58.896Z,3.75
2023-05-04T16:32:30.522Z,3.05
2023-05-04T16:35:04.213Z,4.22
2023-05-04T16:37:37.596Z,3.13
2023-05-04T16:40:16.618Z,7.15
2023-05-04T16:42:48.187Z,2.83
2023-05-04T16:45:23.216Z,2.90
2023-05-04T16:47:56.130Z,4.18
2023-05-04T16:50:27.767Z,3.85
2023-05-04T16:52:59.551Z,4.15
2023-05-04T16:55:31.593Z,4.80
2023-05-04T16:58:03.233Z,4.75
2023-05-04T17:00:34.998Z,4.13
2023-05-04T17:03:06.593Z,3.85
2023-05-04T17:05:38.239Z,3.67
2023-05-04T17:08:11.360Z,2.42
2023-05-04T17:10:43.274Z,4.43
2023-05-04T17:13:14.898Z,2.78
2023-05-04T17:15:47.008Z,3.70
2023-05-04T17:18:19.862Z,2.92
2023-05-04T17:20:51.435Z,3.05
2023-05-04T17:23:23.046Z,3.35
2023-05-04T17:25:56.434Z,2.63
2023-05-04T17:28:30.099Z,1.92
2023-05-04T17:31:01.939Z,4.30
2023-05-04T17:33:33.572Z,3.00
2023-05-04T17:36:07.827Z,2.47
2023-05-04T17:41:13.070Z,2.55
2023-05-04T17:43:45.751Z,2.20
2023-05-04T17:46:17.510Z,3.13
2023-05-04T17:48:50.062Z,2.88
2023-05-04T17:51:23.050Z,2.95
2023-05-04T17:53:56.645Z,3.40
2023-05-04T17:56:28.274Z,2.30
2023-05-04T17:58:59.891Z,2.03
2023-05-04T18:01:31.991Z,1.65
2023-05-04T18:04:04.204Z,2.78
2023-05-04T18:06:37.347Z,3.22
2023-05-04T18:09:08.945Z,1.15
2023-05-04T18:11:40.730Z,3.13
2023-05-04T18:14:12.416Z,2.65
2023-05-04T18:16:44.176Z,3.50
2023-05-04T18:19:15.922Z,2.90
2023-05-04T18:21:47.532Z,5.80
2023-05-04T18:24:19.280Z,3.45
2023-05-04T18:26:54.200Z,2.25
2023-05-04T18:29:26.058Z,2.72
2023-05-04T18:31:58.630Z,3.42
2023-05-04T18:34:33.826Z,4.28
2023-05-04T18:37:05.581Z,1.65
2023-05-04T18:39:38.004Z,3.80
2023-05-04T18:42:09.594Z,1.98
2023-05-04T18:44:41.375Z,3.45
2023-05-04T18:47:13.322Z,2.13
2023-05-04T18:49:45.135Z,1.95
2023-05-04T18:52:16.896Z,3.83
2023-05-04T18:54:51.745Z,2.15
2023-05-04T18:57:23.570Z,2.50
2023-05-04T18:59:55.379Z,2.60
2023-05-04T19:02:29.801Z,2.75
2023-05-04T19:05:02.683Z,2.33
2023-05-04T19:07:34.255Z,4.00
2023-05-04T19:10:07.503Z,3.78
2023-05-04T19:12:39.353Z,4.00
2023-05-04T19:15:11.144Z,4.68
2023-05-04T19:17:42.728Z,3.92
2023-05-04T19:20:17.321Z,7.50
2023-05-04T19:22:50.402Z,8.63
2023-05-04T19:25:33.583Z,4.45
2023-05-04T19:28:09.866Z,5.32
2023-05-04T19:30:42.673Z,3.10
2023-05-04T19:33:14.498Z,5.28
2023-05-04T19:35:46.328Z,4.15
2023-05-04T19:38:17.932Z,6.70
2023-05-04T19:40:56.719Z,5.72
2023-05-04T19:43:28.269Z,5.45
2023-05-04T19:46:02.437Z,6.43
2023-05-04T19:48:34.147Z,9.10
2023-05-04T19:51:05.867Z,6.30
2023-05-04T19:53:37.644Z,4.75
2023-05-04T19:56:09.473Z,5.18
2023-05-04T19:58:41.582Z,5.47
2023-05-04T20:01:13.381Z,5.55
2023-05-04T20:03:45.035Z,3.85
2023-05-04T20:06:16.639Z,4.47
2023-05-04T20:08:50.763Z,5.60
2023-05-04T20:11:22.378Z,6.75
2023-05-04T20:13:55.541Z,5.57
2023-05-04T20:16:29.637Z,5.13
2023-05-04T20:19:03.574Z,4.88
2023-05-04T20:21:35.637Z,5.95
2023-05-04T20:24:07.651Z,3.47
2023-05-04T20:26:40.050Z,5.55
2023-05-04T20:29:11.701Z,4.78
2023-05-04T20:31:43.998Z,4.60
2023-05-04T20:34:16.875Z,4.30
2023-05-04T20:36:49.975Z,4.97
2023-05-04T20:39:21.710Z,4.28
2023-05-04T20:41:53.315Z,5.20
2023-05-04T20:44:25.423Z,6.47
2023-05-04T20:46:57.255Z,6.65
2023-05-04T20:49:29.056Z,7.20
2023-05-04T20:52:00.652Z,7.35
2023-05-04T20:54:32.361Z,6.13
2023-05-04T20:57:03.981Z,7.60
2023-05-04T20:59:35.642Z,6.32
2023-05-04T21:02:07.878Z,6.05
2023-05-04T21:04:39.458Z,6.85
2023-05-04T21:07:16.018Z,6.85
2023-05-04T21:09:47.839Z,7.13
2023-05-04T21:12:19.432Z,9.00
2023-05-04T21:14:51.087Z,6.47
2023-05-04T21:17:22.756Z,6.53
2023-05-04T21:19:54.358Z,5.95
2023-05-04T21:22:27.435Z,6.43
2023-05-04T21:24:59.064Z,6.40
2023-05-04T21:27:30.657Z,8.18
2023-05-04T21:30:08.891Z,6.53
2023-05-04T21:32:40.956Z,6.97
2023-05-04T21:35:13.748Z,5.75
2023-05-04T21:37:45.286Z,5.95
2023-05-04T21:40:17.260Z,6.85
2023-05-04T21:42:48.845Z,5.97
2023-05-04T21:45:20.560Z,5.38
2023-05-04T21:47:52.228Z,6.53
2023-05-04T21:50:26.796Z,8.45
2023-05-04T21:52:58.403Z,7.80
2023-05-04T21:55:30.427Z,5.35
2023-05-04T21:58:02.616Z,6.63
2023-05-04T22:00:34.160Z,8.05
2023-05-04T22:03:05.841Z,6.78
2023-05-04T22:05:37.565Z,6.70
2023-05-04T22:08:09.152Z,7.22
2023-05-04T22:10:40.699Z,8.73
2023-05-04T22:13:12.269Z,6.47
2023-05-04T22:15:49.719Z,7.28
2023-05-04T22:18:22.355Z,8.07
2023-05-04T22:20:53.986Z,7.93
2023-05-04T22:23:28.622Z,6.82
2023-05-04T22:26:00.202Z,5.90
2023-05-04T22:28:32.028Z,8.13
2023-05-04T22:31:03.808Z,7.10
2023-05-04T22:33:35.471Z,8.48
2023-05-04T22:36:07.624Z,7.45
2023-05-04T22:38:39.531Z,8.00
2023-05-04T22:41:14.277Z,7.50
2023-05-04T22:43:45.877Z,9.38
2023-05-04T22:46:17.931Z,7.20
2023-05-04T22:48:49.525Z,7.35
2023-05-04T22:51:21.090Z,5.93
2023-05-04T22:53:55.002Z,5.55
2023-05-04T22:56:26.802Z,6.07
2023-05-04T22:59:00.912Z,7.88
2023-05-04T23:01:32.640Z,5.40
2023-05-04T23:04:07.783Z,5.57
2023-05-04T23:09:11.711Z,6.57
2023-05-04T23:11:43.315Z,7.60
2023-05-04T23:14:15.814Z,5.25
2023-05-04T23:16:50.583Z,7.40
2023-05-04T23:19:22.428Z,7.60
2023-05-04T23:21:54.278Z,6.28
2023-05-04T23:24:26.312Z,5.70
2023-05-04T23:26:58.897Z,4.78
2023-05-04T23:29:30.851Z,4.65
2023-05-04T23:32:02.695Z,5.07
2023-05-04T23:34:34.289Z,4.65
2023-05-04T23:37:05.878Z,7.80
2023-05-04T23:39:37.461Z,5.43
2023-05-04T23:42:09.151Z,6.13
2023-05-04T23:44:40.717Z,7.00
2023-05-04T23:47:12.292Z,6.07
2023-05-04T23:49:43.832Z,5.07
2023-05-04T23:52:15.667Z,7.18
2023-05-04T23:54:54.528Z,5.57
2023-05-04T23:57:26.155Z,5.90
2023-05-04T23:59:57.757Z,6.22
